Time;durP1;ratioP1;P1;durP2;ratioP2;P2;SDS_P1;SDS_P2;PMS_P1;PMS_P2;Temp;Humidity;BMP_temperature;BMP_pressure;BME280_temperature;BME280_humidity;BME280_pressure;Samples;Min_cycle;Max_cycle;Signal;HPM_P1;HPM_P2
2023/06/16 00:02:17;;;;;;;0.10;0.10;;;;;;;14.91;63.17;99477.72;5077185;28;20127;-63
2023/06/16 00:04:45;;;;;;;0.00;0.00;;;;;;;14.83;63.20;99477.16;5077732;28;20033;-63
2023/06/16 00:07:12;;;;;;;0.00;0.00;;;;;;;14.75;63.45;99474.97;5074634;28;20378;-64
2023/06/16 00:09:39;;;;;;;0.03;0.03;;;;;;;14.69;64.04;99473.31;5072717;28;20135;-63
2023/06/16 00:12:09;;;;;;;0.10;0.10;;;;;;;14.61;64.31;99471.13;5077116;28;20041;-63
2023/06/16 00:14:36;;;;;;;0.00;0.00;;;;;;;14.72;64.01;99472.78;5072941;28;20040;-63
2023/06/16 00:17:05;;;;;;;0.00;0.00;;;;;;;14.73;64.58;99481.72;5074374;28;20045;-64
2023/06/16 00:19:32;;;;;;;0.00;0.00;;;;;;;14.45;66.14;99478.28;5082841;28;20036;-64
2023/06/16 00:22:02;;;;;;;0.13;0.08;;;;;;;14.45;65.61;99479.13;5072497;28;20462;-63
2023/06/16 00:24:29;;;;;;;0.00;0.00;;;;;;;14.49;65.52;99482.09;5077231;28;20048;-64
2023/06/16 00:26:57;;;;;;;0.10;0.10;;;;;;;14.43;65.86;99489.34;5079667;28;20135;-63
2023/06/16 00:29:26;;;;;;;0.00;0.00;;;;;;;14.25;66.17;99476.28;5078041;28;20129;-63
2023/06/16 00:31:55;;;;;;;0.00;0.00;;;;;;;14.07;68.63;99474.81;5074877;28;20053;-64
2023/06/16 00:34:22;;;;;;;0.10;0.10;;;;;;;13.95;69.94;99477.72;5078328;28;20060;-64
2023/06/16 00:36:50;;;;;;;0.00;0.00;;;;;;;13.84;69.06;99481.41;5082208;28;20379;-64
2023/06/16 00:39:17;;;;;;;0.13;0.13;;;;;;;13.86;69.43;99471.19;5077079;28;20094;-64
2023/06/16 00:41:44;;;;;;;0.00;0.00;;;;;;;13.84;69.33;99473.31;5091821;28;20048;-64
2023/06/16 00:44:12;;;;;;;0.10;0.10;;;;;;;13.90;71.14;99480.34;5081140;28;20159;-63
2023/06/16 00:46:41;;;;;;;0.00;0.00;;;;;;;13.65;71.25;99472.06;5078526;28;20045;-63
2023/06/16 00:49:08;;;;;;;0.00;0.00;;;;;;;13.82;68.88;99464.66;5071786;28;20131;-63
2023/06/16 00:51:36;;;;;;;0.10;0.10;;;;;;;13.81;68.79;99465.75;5071780;28;20049;-63
2023/06/16 00:54:04;;;;;;;0.00;0.00;;;;;;;13.61;71.09;99460.22;5078210;28;20127;-63
2023/06/16 00:56:31;;;;;;;0.20;0.20;;;;;;;13.52;72.34;99462.53;5076369;28;20048;-63
2023/06/16 00:59:00;;;;;;;0.10;0.10;;;;;;;13.48;74.39;99462.25;5089265;28;20055;-64
2023/06/16 01:01:28;;;;;;;0.00;0.00;;;;;;;13.38;73.92;99467.56;5073418;28;20037;-63
2023/06/16 01:03:57;;;;;;;0.10;0.10;;;;;;;13.21;74.84;99472.19;5073192;28;20575;-63
2023/06/16 01:06:32;;;;;;;0.82;0.20;;;;;;;13.22;71.50;99463.84;5072468;28;20369;-63
2023/06/16 01:09:05;;;;;;;0.00;0.00;;;;;;;13.40;70.87;99464.59;5080201;28;20094;-63
2023/06/16 01:11:37;;;;;;;0.10;0.10;;;;;;;13.39;70.94;99469.16;5082898;28;20101;-64
2023/06/16 01:14:08;;;;;;;0.08;0.08;;;;;;;13.05;76.04;99485.47;5081224;28;20123;-64
2023/06/16 01:16:36;;;;;;;0.10;0.10;;;;;;;12.61;78.37;99480.13;5077687;28;20040;-63
2023/06/16 01:19:09;;;;;;;0.00;0.00;;;;;;;12.73;75.80;99475.44;5074975;28;20047;-64
2023/06/16 01:21:43;;;;;;;0.10;0.10;;;;;;;13.12;72.39;99478.00;5078718;28;20055;-63
2023/06/16 01:24:13;;;;;;;0.00;0.00;;;;;;;13.23;72.06;99476.25;5079123;28;20550;-63
2023/06/16 01:26:45;;;;;;;0.00;0.00;;;;;;;13.12;72.67;99478.00;5074740;28;20091;-63
2023/06/16 01:29:13;;;;;;;0.05;0.05;;;;;;;12.96;73.70;99476.22;5072084;28;20032;-63
2023/06/16 01:31:41;;;;;;;0.20;0.20;;;;;;;12.91;73.58;99468.09;5054450;28;20055;-63
2023/06/16 01:34:09;;;;;;;0.10;0.10;;;;;;;12.88;74.19;99468.59;5083812;28;20044;-63
2023/06/16 01:36:38;;;;;;;0.10;0.10;;;;;;;12.62;78.14;99470.97;5076953;28;20143;-63
2023/06/16 01:39:05;;;;;;;0.20;0.20;;;;;;;12.64;77.10;99471.53;5080512;28;20036;-63
2023/06/16 01:41:34;;;;;;;0.10;0.10;;;;;;;12.93;73.25;99472.16;5070431;28;20049;-63
2023/06/16 01:44:02;;;;;;;0.00;0.00;;;;;;;12.98;72.92;99473.28;5070830;28;20407;-63
2023/06/16 01:46:29;;;;;;;0.10;0.10;;;;;;;12.51;77.50;99485.38;5070236;28;20044;-64
2023/06/16 01:48:57;;;;;;;0.10;0.10;;;;;;;12.19;79.72;99483.31;5077121;28;20384;-63
2023/06/16 01:51:24;;;;;;;0.20;0.20;;;;;;;12.09;80.34;99475.09;5065229;28;20070;-63
2023/06/16 01:53:53;;;;;;;0.05;0.05;;;;;;;12.36;77.33;99477.09;5077010;28;20048;-63
2023/06/16 01:56:20;;;;;;;0.45;0.20;;;;;;;12.34;78.39;99484.59;5071028;28;20083;-63
2023/06/16 01:58:49;;;;;;;0.10;0.10;;;;;;;12.20;79.56;99478.72;5071095;28;20082;-63
2023/06/16 02:01:19;;;;;;;0.20;0.20;;;;;;;12.37;79.02;99479.50;5068304;28;20040;-63
2023/06/16 02:03:48;;;;;;;0.00;0.00;;;;;;;12.25;79.04;99476.94;5082933;28;20040;-64
2023/06/16 02:06:18;;;;;;;0.10;0.10;;;;;;;12.26;78.34;99477.75;5085956;28;20044;-63
2023/06/16 02:08:46;;;;;;;0.10;0.10;;;;;;;12.15;79.10;99481.34;5082447;28;20043;-64
2023/06/16 02:11:15;;;;;;;0.10;0.10;;;;;;;11.91;81.72;99473.50;5074251;28;20040;-63
2023/06/16 02:13:43;;;;;;;0.10;0.10;;;;;;;12.18;78.75;99473.63;5072275;28;20044;-63
2023/06/16 02:16:11;;;;;;;0.03;0.03;;;;;;;12.42;77.49;99476.09;5080465;28;20126;-63
2023/06/16 02:18:40;;;;;;;0.10;0.10;;;;;;;12.03;79.39;99478.75;5079110;28;20115;-64
2023/06/16 02:21:07;;;;;;;0.10;0.10;;;;;;;11.78;82.46;99471.91;5075323;28;20043;-64
2023/06/16 02:23:35;;;;;;;0.10;0.10;;;;;;;11.98;80.53;99462.56;5083609;28;20074;-63
2023/06/16 02:26:02;;;;;;;0.10;0.10;;;;;;;12.26;77.83;99457.06;5062583;28;20047;-63
2023/06/16 02:28:29;;;;;;;0.28;0.10;;;;;;;12.07;79.77;99469.97;5079392;28;20386;-63
2023/06/16 02:30:57;;;;;;;0.00;0.00;;;;;;;11.74;82.01;99465.41;5076976;28;20044;-65
2023/06/16 02:33:26;;;;;;;0.00;0.00;;;;;;;11.86;81.10;99458.09;5080874;28;20487;-65
2023/06/16 02:35:55;;;;;;;0.00;0.00;;;;;;;12.16;79.14;99456.94;5083469;28;20086;-65
2023/06/16 02:38:22;;;;;;;0.10;0.10;;;;;;;12.40;77.29;99465.56;5082843;28;20041;-65
2023/06/16 02:40:50;;;;;;;0.10;0.10;;;;;;;11.97;79.72;99464.44;5081421;28;20047;-65
2023/06/16 02:43:18;;;;;;;0.10;0.10;;;;;;;11.91;81.08;99464.63;5079594;28;20052;-64
2023/06/16 02:45:46;;;;;;;0.13;0.10;;;;;;;11.80;81.89;99464.41;5073654;28;20044;-65
2023/06/16 02:48:15;;;;;;;0.10;0.10;;;;;;;12.09;81.39;99458.97;5056944;28;20048;-66
2023/06/16 02:50:47;;;;;;;0.10;0.10;;;;;;;12.17;79.07;99463.91;5077005;28;20040;-65
2023/06/16 02:53:19;;;;;;;0.10;0.10;;;;;;;12.02;80.02;99466.38;5079235;28;20059;-64
2023/06/16 02:55:47;;;;;;;0.00;0.00;;;;;;;11.96;81.02;99470.06;5073966;28;20044;-65
2023/06/16 02:58:16;;;;;;;0.10;0.10;;;;;;;11.90;81.33;99468.34;5076124;28;20056;-65
2023/06/16 03:00:43;;;;;;;0.10;0.10;;;;;;;11.89;84.15;99466.75;5071225;28;20060;-65
2023/06/16 03:03:30;;;;;;;0.10;0.10;;;;;;;11.86;82.02;99466.16;5072930;28;20040;-65
2023/06/16 03:06:08;;;;;;;;;;;;;;;11.61;83.07;99468.41;5086236;28;20047;-62
2023/06/16 03:08:37;;;;;;;0.10;0.10;;;;;;;11.71;83.76;99467.78;5079705;28;19924;-65
2023/06/16 03:11:05;;;;;;;0.10;0.10;;;;;;;11.99;83.32;99456.94;5074549;28;20060;-64
2023/06/16 03:13:42;;;;;;;0.10;0.10;;;;;;;11.83;82.47;99466.63;5070440;28;20044;-64
2023/06/16 03:16:10;;;;;;;0.10;0.10;;;;;;;11.89;81.30;99467.53;5069939;28;20052;-64
2023/06/16 03:18:38;;;;;;;0.10;0.10;;;;;;;11.69;84.42;99473.38;5079173;28;20037;-64
2023/06/16 03:21:06;;;;;;;0.10;0.10;;;;;;;11.26;85.09;99468.59;5058175;28;20044;-64
2023/06/16 03:23:41;;;;;;;0.10;0.10;;;;;;;11.00;87.01;99476.16;5073655;28;20636;-64
2023/06/16 03:26:10;;;;;;;0.10;0.10;;;;;;;11.34;86.83;99474.38;5076034;28;20039;-64
2023/06/16 03:29:16;;;;;;;0.10;0.10;;;;;;;11.86;85.47;99479.59;5070825;28;20040;-64
2023/06/16 03:31:46;;;;;;;0.10;0.10;;;;;;;11.82;81.54;99488.34;5091430;28;20055;-64
2023/06/16 03:34:16;;;;;;;0.10;0.10;;;;;;;11.90;82.52;99485.28;5068164;28;20495;-64
2023/06/16 03:36:44;;;;;;;0.20;0.20;;;;;;;11.96;81.24;99488.88;5079523;28;20044;-64
2023/06/16 03:39:13;;;;;;;0.00;0.00;;;;;;;11.99;84.53;99483.00;5073207;28;20105;-64
2023/06/16 03:41:43;;;;;;;0.20;0.20;;;;;;;12.26;80.13;99486.63;5068713;28;20056;-64
2023/06/16 03:44:10;;;;;;;0.10;0.10;;;;;;;12.39;79.73;99490.03;5082208;28;20041;-64
2023/06/16 03:46:38;;;;;;;0.10;0.10;;;;;;;12.50;78.86;99491.78;5074261;28;21766;-64
2023/06/16 03:49:07;;;;;;;0.00;0.00;;;;;;;12.36;79.61;99493.22;5075811;28;20130;-64
2023/06/16 03:51:35;;;;;;;0.10;0.10;;;;;;;13.46;76.12;99501.28;5075412;28;20036;-64
2023/06/16 03:54:02;;;;;;;0.20;0.20;;;;;;;14.27;71.02;99495.72;5075508;28;20054;-64
2023/06/16 03:56:32;;;;;;;0.22;0.22;;;;;;;14.11;70.81;99504.78;5081743;28;20509;-64
2023/06/16 03:59:00;;;;;;;0.52;0.52;;;;;;;14.56;68.59;99506.16;5076969;28;20075;-64
2023/06/16 04:01:27;;;;;;;0.25;0.20;;;;;;;15.14;67.30;99495.34;5075819;28;20123;-64
2023/06/16 04:03:55;;;;;;;0.10;0.10;;;;;;;15.46;64.59;99495.94;5076259;28;20429;-65
2023/06/16 04:06:23;;;;;;;0.08;0.08;;;;;;;16.16;62.49;99503.53;5071961;28;20056;-65
2023/06/16 04:08:51;;;;;;;0.10;0.10;;;;;;;17.11;58.75;99501.94;5089346;28;20040;-64
2023/06/16 04:11:20;;;;;;;0.10;0.10;;;;;;;17.24;56.93;99504.81;5075222;28;20436;-64
2023/06/16 04:13:48;;;;;;;0.10;0.10;;;;;;;17.82;55.47;99508.78;5075613;28;20044;-64
2023/06/16 04:16:17;;;;;;;0.10;0.10;;;;;;;17.88;54.92;99508.47;5066814;28;20047;-64
2023/06/16 04:18:48;;;;;;;0.10;0.10;;;;;;;17.76;55.00;99512.63;5080705;28;20492;-64
2023/06/16 04:21:16;;;;;;;0.10;0.10;;;;;;;17.61;55.81;99513.53;5077471;28;20105;-64
2023/06/16 04:23:44;;;;;;;0.10;0.10;;;;;;;18.25;53.70;99515.22;5067473;28;20044;-64
2023/06/16 04:26:13;;;;;;;0.10;0.10;;;;;;;18.39;53.25;99509.91;5068878;28;20098;-64
2023/06/16 04:28:44;;;;;;;0.15;0.15;;;;;;;18.39;53.26;99514.53;5076499;28;20040;-64
2023/06/16 04:31:16;;;;;;;0.20;0.20;;;;;;;18.15;53.51;99509.09;5073609;28;20048;-64
2023/06/16 04:33:44;;;;;;;0.00;0.00;;;;;;;19.01;51.37;99520.09;5075477;28;20447;-64
2023/06/16 04:36:13;;;;;;;0.05;0.05;;;;;;;20.03;48.78;99524.88;5072499;28;20037;-64
2023/06/16 04:38:40;;;;;;;0.00;0.00;;;;;;;19.43;49.87;99519.25;5077976;28;20141;-64
2023/06/16 04:41:08;;;;;;;0.00;0.00;;;;;;;17.03;56.36;99519.56;5074071;28;20049;-64
2023/06/16 04:43:37;;;;;;;0.00;0.00;;;;;;;16.60;59.52;99514.53;5071802;28;20055;-64
2023/06/16 04:46:05;;;;;;;0.10;0.10;;;;;;;14.95;65.40;99512.03;5081226;28;20304;-64
2023/06/16 04:48:35;;;;;;;0.10;0.10;;;;;;;14.91;67.01;99516.31;5080809;28;20039;-64
2023/06/16 04:51:02;;;;;;;0.13;0.13;;;;;;;17.17;58.94;99511.63;5085241;28;20082;-64
2023/06/16 04:53:32;;;;;;;0.10;0.10;;;;;;;18.98;53.25;99507.91;5083740;28;20048;-64
2023/06/16 04:56:00;;;;;;;0.10;0.10;;;;;;;18.94;52.15;99509.59;5071358;28;20049;-64
2023/06/16 04:58:29;;;;;;;0.13;0.08;;;;;;;18.79;52.72;99507.06;5081266;28;20410;-64
2023/06/16 05:00:59;;;;;;;0.40;0.40;;;;;;;19.95;51.66;99517.41;5074729;28;20067;-64
2023/06/16 05:03:26;;;;;;;0.10;0.10;;;;;;;20.46;48.74;99521.94;5076442;28;20355;-65
2023/06/16 05:05:55;;;;;;;0.10;0.10;;;;;;;20.67;48.19;99521.59;5061504;28;20076;-64
2023/06/16 05:08:23;;;;;;;0.10;0.10;;;;;;;21.01;47.68;99521.16;5081699;28;20127;-63
2023/06/16 05:10:50;;;;;;;0.28;0.10;;;;;;;21.43;47.22;99530.09;5073443;28;20647;-63
2023/06/16 05:13:19;;;;;;;0.03;0.03;;;;;;;21.94;46.86;99515.28;5072157;28;20037;-63
2023/06/16 05:15:47;;;;;;;0.38;0.08;;;;;;;22.87;44.68;99524.56;5080113;28;20103;-63
2023/06/16 05:18:14;;;;;;;0.10;0.10;;;;;;;23.32;43.81;99518.91;5080235;28;20386;-62
2023/06/16 05:20:42;;;;;;;0.00;0.00;;;;;;;22.85;44.91;99518.63;5052321;28;20064;-62
2023/06/16 05:23:10;;;;;;;0.28;0.15;;;;;;;22.90;44.38;99521.19;5076847;28;20126;-63
2023/06/16 05:25:39;;;;;;;0.03;0.03;;;;;;;23.31;43.86;99519.22;5073692;28;20036;-63
2023/06/16 05:28:08;;;;;;;;;;;;;;;23.66;43.53;99517.28;5078671;28;20123;-63
2023/06/16 05:30:36;;;;;;;0.00;0.00;;;;;;;23.89;42.40;99515.22;5096759;28;20297;-63
2023/06/16 05:33:04;;;;;;;0.00;0.00;;;;;;;24.25;42.44;99520.28;5077733;28;20040;-63
2023/06/16 05:35:32;;;;;;;0.00;0.00;;;;;;;24.61;41.43;99524.56;5077964;28;20479;-63
2023/06/16 05:38:00;;;;;;;0.00;0.00;;;;;;;24.67;41.49;99533.41;5080812;28;20052;-63
2023/06/16 05:40:30;;;;;;;0.00;0.00;;;;;;;24.26;42.65;99529.31;5060099;28;20075;-63
2023/06/16 05:42:58;;;;;;;0.00;0.00;;;;;;;24.69;42.49;99536.63;5080242;28;20495;-63
2023/06/16 05:45:26;;;;;;;0.03;0.03;;;;;;;24.49;42.98;99522.50;5074141;28;20089;-63
2023/06/16 05:47:54;;;;;;;0.00;0.00;;;;;;;25.14;41.67;99520.41;5082123;28;20052;-63
2023/06/16 05:50:21;;;;;;;0.00;0.00;;;;;;;25.79;40.76;99522.84;5076202;28;20044;-63
2023/06/16 05:52:48;;;;;;;0.10;0.10;;;;;;;25.53;40.70;99521.09;5076363;28;20048;-63
2023/06/16 05:55:16;;;;;;;0.00;0.00;;;;;;;25.67;41.16;99520.03;5069226;28;20475;-63
2023/06/16 05:57:51;;;;;;;0.00;0.00;;;;;;;26.00;40.27;99523.63;5073484;28;20047;-63
2023/06/16 06:00:18;;;;;;;;;;;;;;;25.44;40.99;99519.59;5078685;28;20397;-63
2023/06/16 06:02:56;;;;;;;0.00;0.00;;;;;;;25.65;40.70;99527.81;5075222;28;19928;-63
2023/06/16 06:05:34;;;;;;;0.00;0.00;;;;;;;25.06;40.85;99529.50;5076996;28;20047;-63
2023/06/16 06:08:02;;;;;;;0.00;0.00;;;;;;;26.31;39.07;99530.59;5079114;28;20072;-63
2023/06/16 06:10:30;;;;;;;0.05;0.05;;;;;;;26.14;38.98;99534.31;5062190;28;20052;-63
2023/06/16 06:13:02;;;;;;;0.00;0.00;;;;;;;26.70;37.69;99533.06;5071273;28;20048;-63
2023/06/16 06:15:30;;;;;;;0.00;0.00;;;;;;;27.03;37.24;99533.75;5076691;28;20036;-63
2023/06/16 06:18:06;;;;;;;0.00;0.00;;;;;;;27.21;36.51;99542.59;5076672;28;20055;-63
2023/06/16 06:20:41;;;;;;;0.00;0.00;;;;;;;26.76;37.37;99543.50;5074752;28;20087;-64
2023/06/16 06:23:09;;;;;;;0.03;0.00;;;;;;;26.42;38.51;99545.47;5090258;28;20125;-64
2023/06/16 06:25:37;;;;;;;0.00;0.00;;;;;;;25.93;37.18;99550.81;5075901;28;20051;-64
2023/06/16 06:28:07;;;;;;;0.00;0.00;;;;;;;26.29;37.81;99548.56;5077097;28;20055;-64
2023/06/16 06:30:35;;;;;;;0.10;0.00;;;;;;;27.14;36.55;99549.78;5053360;28;20055;-64
2023/06/16 06:33:03;;;;;;;0.10;0.10;;;;;;;26.16;37.06;99555.94;5071122;28;20486;-64
2023/06/16 06:35:31;;;;;;;0.13;0.13;;;;;;;26.73;36.80;99560.66;5095337;28;20389;-64
2023/06/16 06:37:59;;;;;;;0.10;0.10;;;;;;;26.57;36.73;99559.75;5062121;28;20066;-64
2023/06/16 06:40:27;;;;;;;0.10;0.10;;;;;;;26.62;36.99;99560.31;5072902;28;20160;-64
2023/06/16 06:42:55;;;;;;;0.05;0.05;;;;;;;26.54;36.87;99561.22;5080490;28;20513;-63
2023/06/16 06:45:59;;;;;;;0.20;0.20;;;;;;;28.10;34.77;99569.16;5064424;28;20498;-64
2023/06/16 06:48:27;;;;;;;0.10;0.10;;;;;;;26.16;36.71;99570.50;5070373;28;20101;-64
2023/06/16 06:51:01;;;;;;;0.20;0.20;;;;;;;25.14;37.94;99579.94;5076875;28;20044;-64
2023/06/16 06:53:29;;;;;;;0.45;0.45;;;;;;;26.56;36.92;99574.59;5075112;28;20045;-64
2023/06/16 06:55:57;;;;;;;0.20;0.20;;;;;;;28.43;34.17;99572.78;5076520;28;20131;-64
2023/06/16 06:58:24;;;;;;;0.20;0.20;;;;;;;28.66;33.23;99578.53;5076647;28;20297;-64
2023/06/16 07:00:52;;;;;;;0.20;0.20;;;;;;;28.93;33.13;99574.88;5075824;28;20047;-64
2023/06/16 07:03:22;;;;;;;0.30;0.30;;;;;;;27.49;34.94;99575.66;5078352;28;20050;-64
2023/06/16 07:05:49;;;;;;;0.20;0.20;;;;;;;27.96;33.94;99580.59;5069566;28;20630;-64
2023/06/16 07:08:17;;;;;;;0.10;0.10;;;;;;;29.35;32.69;99585.31;5072964;28;20043;-64
2023/06/16 07:10:44;;;;;;;0.45;0.40;;;;;;;29.14;32.83;99579.34;5075408;28;20048;-64
2023/06/16 07:13:12;;;;;;;0.28;0.28;;;;;;;28.51;33.89;99582.91;5078220;28;20039;-64
2023/06/16 07:15:39;;;;;;;0.10;0.10;;;;;;;27.41;34.68;99578.53;5074020;28;20125;-64
2023/06/16 07:18:07;;;;;;;0.32;0.32;;;;;;;27.82;34.94;99588.44;5080753;28;20512;-64
2023/06/16 07:20:35;;;;;;;0.25;0.25;;;;;;;28.86;33.45;99588.50;5079903;28;20040;-64
2023/06/16 07:23:05;;;;;;;0.22;0.22;;;;;;;29.34;32.96;99589.25;5071382;28;20139;-64
2023/06/16 07:25:36;;;;;;;0.20;0.20;;;;;;;29.93;31.97;99592.09;5080084;28;20402;-64
2023/06/16 07:28:04;;;;;;;0.28;0.28;;;;;;;29.38;32.89;99594.84;5075791;28;20055;-64
2023/06/16 07:30:32;;;;;;;0.00;0.00;;;;;;;28.85;33.74;99591.59;5075434;28;20048;-64
2023/06/16 07:33:02;;;;;;;0.30;0.30;;;;;;;29.45;33.15;99589.50;5073734;28;20048;-64
2023/06/16 07:35:30;;;;;;;0.40;0.40;;;;;;;27.07;35.64;99589.66;5075726;28;20312;-64
2023/06/16 07:37:59;;;;;;;0.10;0.10;;;;;;;28.57;33.95;99587.78;5076107;28;20059;-64
2023/06/16 07:40:26;;;;;;;0.35;0.35;;;;;;;31.00;30.32;99588.56;5079484;28;20070;-63
2023/06/16 07:42:54;;;;;;;;;;;;;;;29.45;31.80;99589.50;5073719;28;20051;-64
2023/06/16 07:45:22;;;;;;;0.20;0.20;;;;;;;29.07;32.55;99584.69;5086228;28;20179;-64
2023/06/16 07:47:50;;;;;;;0.25;0.15;;;;;;;30.34;30.96;99585.06;5082866;28;20058;-64
2023/06/16 07:50:17;;;;;;;0.30;0.30;;;;;;;29.00;32.49;99588.81;5076278;28;20040;-64
2023/06/16 07:52:45;;;;;;;0.20;0.10;;;;;;;29.84;32.01;99584.84;5077223;28;20044;-64
2023/06/16 07:55:14;;;;;;;0.13;0.13;;;;;;;29.01;32.19;99587.69;5075656;28;20411;-64
2023/06/16 07:57:42;;;;;;;0.13;0.13;;;;;;;30.73;29.10;99585.75;5075149;28;20445;-64
2023/06/16 08:00:11;;;;;;;0.08;0.08;;;;;;;29.76;30.47;99580.34;5073968;28;20569;-64
2023/06/16 08:02:46;;;;;;;0.38;0.13;;;;;;;30.24;29.64;99586.44;5081073;28;20039;-64
2023/06/16 08:05:16;;;;;;;0.20;0.20;;;;;;;30.88;29.06;99580.50;5084015;28;20044;-63
2023/06/16 08:07:44;;;;;;;0.10;0.10;;;;;;;30.94;28.45;99579.78;5074724;28;20099;-64
2023/06/16 08:10:13;;;;;;;0.00;0.00;;;;;;;29.61;30.68;99581.19;5072722;28;20049;-63
2023/06/16 08:12:41;;;;;;;0.30;0.30;;;;;;;30.23;29.47;99584.00;5067751;28;20044;-63
2023/06/16 08:15:09;;;;;;;0.22;0.03;;;;;;;29.31;30.94;99576.19;5078331;28;20528;-65
2023/06/16 08:17:37;;;;;;;0.10;0.10;;;;;;;30.36;29.69;99576.41;5083105;28;20067;-65
2023/06/16 08:20:05;;;;;;;;;;;;;;;29.72;31.03;99576.69;5078289;28;20051;-62
2023/06/16 08:22:33;;;;;;;0.00;0.00;;;;;;;30.60;29.60;99581.56;5077614;28;19928;-65
2023/06/16 08:25:02;;;;;;;0.30;0.10;;;;;;;30.12;30.26;99575.53;5074228;28;20076;-65
2023/06/16 08:27:31;;;;;;;0.40;0.40;;;;;;;30.42;29.16;99580.44;5074621;28;20326;-65
2023/06/16 08:29:58;;;;;;;0.10;0.10;;;;;;;28.77;30.20;99568.56;5075463;28;20068;-65
2023/06/16 08:32:26;;;;;;;0.30;0.20;;;;;;;29.25;29.00;99572.09;5079293;28;20048;-65
2023/06/16 08:34:54;;;;;;;0.83;0.20;;;;;;;30.16;28.61;99562.56;5083083;28;20044;-64
2023/06/16 08:37:22;;;;;;;0.00;0.00;;;;;;;30.29;28.37;99560.47;5071238;28;20304;-65
2023/06/16 08:39:52;;;;;;;0.00;0.00;;;;;;;31.32;27.43;99558.59;5069344;28;20104;-64
2023/06/16 08:42:19;;;;;;;0.00;0.00;;;;;;;31.26;25.64;99556.53;5071385;28;20048;-64
2023/06/16 08:44:48;;;;;;;0.10;0.10;;;;;;;29.87;28.35;99562.00;5078931;28;20146;-64
2023/06/16 08:47:15;;;;;;;;;;;;;;;29.73;28.35;99572.78;5082526;28;20410;-65
2023/06/16 08:49:43;;;;;;;0.00;0.00;;;;;;;28.86;29.39;99563.69;5081850;28;19928;-64
2023/06/16 08:52:11;;;;;;;0.00;0.00;;;;;;;28.78;28.91;99559.94;5077809;28;20139;-64
2023/06/16 08:54:48;;;;;;;0.00;0.00;;;;;;;29.56;28.59;99562.13;5073222;28;20045;-65
2023/06/16 08:57:18;;;;;;;0.10;0.10;;;;;;;29.74;29.00;99557.81;5052739;28;20067;-64
2023/06/16 08:59:50;;;;;;;0.10;0.10;;;;;;;30.82;28.08;99554.25;5070841;28;20041;-64
2023/06/16 09:02:18;;;;;;;0.15;0.10;;;;;;;30.59;28.90;99562.56;5072617;28;20056;-64
2023/06/16 09:04:47;;;;;;;0.00;0.00;;;;;;;28.72;30.38;99561.34;5077964;28;20510;-64
2023/06/16 09:07:19;;;;;;;0.20;0.10;;;;;;;28.52;31.11;99554.16;5075404;28;20064;-64
2023/06/16 09:09:47;;;;;;;0.20;0.20;;;;;;;30.25;28.87;99556.84;5077388;28;20052;-64
2023/06/16 09:12:14;;;;;;;0.00;0.00;;;;;;;29.12;29.88;99554.06;5083260;28;20040;-64
2023/06/16 09:14:48;;;;;;;0.00;0.00;;;;;;;27.28;33.41;99548.31;5082700;28;20130;-64
2023/06/16 09:17:18;;;;;;;0.00;0.00;;;;;;;28.25;31.33;99548.31;5076607;28;20075;-64
2023/06/16 09:19:47;;;;;;;0.13;0.10;;;;;;;26.85;32.08;99549.66;5076297;28;20051;-65
2023/06/16 09:22:18;;;;;;;0.00;0.00;;;;;;;27.99;31.49;99543.28;5068832;28;20447;-63
2023/06/16 09:24:46;;;;;;;0.00;0.00;;;;;;;27.98;32.29;99541.66;5079994;28;20076;-63
2023/06/16 09:27:13;;;;;;;0.00;0.00;;;;;;;29.65;30.35;99549.75;5077462;28;20045;-63
2023/06/16 09:29:41;;;;;;;0.00;0.00;;;;;;;29.88;28.89;99541.53;5083217;28;20054;-63
2023/06/16 09:32:09;;;;;;;0.00;0.00;;;;;;;29.62;29.66;99536.63;5073914;28;20139;-64
2023/06/16 09:34:39;;;;;;;0.00;0.00;;;;;;;27.15;32.04;99543.94;5082132;28;20043;-65
2023/06/16 09:37:06;;;;;;;;;;;;;;;27.67;32.35;99537.66;5087670;28;20040;-64
2023/06/16 09:39:33;;;;;;;0.00;0.00;;;;;;;27.16;30.58;99537.28;5075116;28;19932;-64
2023/06/16 09:42:03;;;;;;;0.03;0.03;;;;;;;27.57;30.27;99532.63;5079922;28;20147;-64
2023/06/16 09:44:31;;;;;;;0.00;0.00;;;;;;;27.79;30.81;99530.50;5081507;28;20044;-64
2023/06/16 09:47:02;;;;;;;0.00;0.00;;;;;;;26.94;31.89;99537.78;5086518;28;20139;-63
2023/06/16 09:49:29;;;;;;;0.00;0.00;;;;;;;27.82;30.72;99532.59;5073640;28;20597;-63
2023/06/16 09:51:59;;;;;;;0.00;0.00;;;;;;;27.78;31.49;99526.13;5074792;28;20051;-65
2023/06/16 09:54:27;;;;;;;;;;;;;;;28.23;30.59;99528.59;5087040;28;20055;-63
2023/06/16 09:56:55;;;;;;;0.00;0.00;;;;;;;29.08;28.47;99531.91;5087630;28;19924;-62
2023/06/16 09:59:23;;;;;;;0.00;0.00;;;;;;;29.44;26.86;99533.47;5086719;28;20123;-62
2023/06/16 10:01:53;;;;;;;0.00;0.00;;;;;;;26.86;29.99;99532.03;5078764;28;20353;-64
2023/06/16 10:04:22;;;;;;;0.00;0.00;;;;;;;26.95;30.38;99526.41;5080104;28;20078;-63
2023/06/16 10:06:54;;;;;;;0.20;0.17;;;;;;;27.48;29.92;99529.22;5083522;28;20036;-64
2023/06/16 10:09:27;;;;;;;0.00;0.00;;;;;;;28.30;29.37;99526.00;5080957;28;20048;-64
2023/06/16 10:11:55;;;;;;;0.00;0.00;;;;;;;28.36;29.12;99527.34;5078590;28;20572;-65
2023/06/16 10:14:23;;;;;;;0.20;0.10;;;;;;;28.68;28.35;99526.56;5074774;28;20045;-63
2023/06/16 10:16:51;;;;;;;0.00;0.00;;;;;;;28.98;28.77;99527.72;5077285;28;20044;-65
2023/06/16 10:19:18;;;;;;;0.00;0.00;;;;;;;27.28;30.34;99520.81;5085393;28;20047;-65
2023/06/16 10:21:47;;;;;;;0.10;0.00;;;;;;;27.10;31.30;99517.44;5082165;28;20514;-64
2023/06/16 10:24:14;;;;;;;0.22;0.20;;;;;;;28.22;30.31;99515.16;5075874;28;20041;-64
2023/06/16 10:26:46;;;;;;;0.00;0.00;;;;;;;28.58;29.14;99528.72;5079626;28;20163;-65
2023/06/16 10:29:16;;;;;;;0.00;0.00;;;;;;;28.94;29.41;99518.53;5074103;28;20048;-64
2023/06/16 10:31:45;;;;;;;0.22;0.03;;;;;;;28.62;30.50;99519.75;5078638;28;20043;-65
2023/06/16 10:34:18;;;;;;;0.00;0.00;;;;;;;28.24;31.26;99515.63;5077220;28;20072;-63
2023/06/16 10:36:46;;;;;;;0.00;0.00;;;;;;;28.29;29.92;99507.88;5078302;28;20116;-63
2023/06/16 10:39:13;;;;;;;0.00;0.00;;;;;;;29.09;30.71;99510.63;5076631;28;20489;-63
2023/06/16 10:41:52;;;;;;;0.00;0.00;;;;;;;27.68;31.34;99511.72;5074094;28;20494;-64
2023/06/16 10:44:23;;;;;;;;;;;;;;;27.09;32.64;99507.59;5069671;28;20121;-62
2023/06/16 10:47:28;;;;;;;0.00;0.00;;;;;;;26.55;33.62;99516.09;5076652;28;19975;-64
2023/06/16 10:49:57;;;;;;;0.10;0.10;;;;;;;26.08;33.61;99499.16;5080479;28;20398;-64
2023/06/16 10:52:54;;;;;;;0.00;0.00;;;;;;;28.04;31.17;99496.22;5069042;28;20055;-64
2023/06/16 10:55:35;;;;;;;0.00;0.00;;;;;;;28.11;31.28;99496.41;5059671;28;20071;-64
2023/06/16 10:58:26;;;;;;;0.10;0.10;;;;;;;28.14;31.95;99492.94;5074052;28;20141;-64
2023/06/16 11:01:24;;;;;;;0.00;0.00;;;;;;;28.56;31.23;99506.22;5072906;28;20083;-63
2023/06/16 11:04:02;;;;;;;0.00;0.00;;;;;;;29.35;29.45;99493.44;5080716;28;20186;-64
2023/06/16 11:06:30;;;;;;;0.00;0.00;;;;;;;29.82;28.98;99496.00;5079694;28;20036;-63
2023/06/16 11:08:58;;;;;;;0.00;0.00;;;;;;;29.56;29.73;99498.63;5077396;28;20628;-64
2023/06/16 11:11:34;;;;;;;0.00;0.00;;;;;;;29.24;29.52;99487.69;5075157;28;20050;-63
2023/06/16 11:14:03;;;;;;;0.00;0.00;;;;;;;30.39;28.00;99495.47;5076594;28;20465;-64
2023/06/16 11:16:31;;;;;;;0.00;0.00;;;;;;;30.34;28.18;99480.00;5053067;28;20040;-63
2023/06/16 11:18:58;;;;;;;0.00;0.00;;;;;;;29.10;29.96;99490.16;5078745;28;20533;-64
2023/06/16 11:21:30;;;;;;;0.00;0.00;;;;;;;29.14;29.72;99496.56;5080683;28;20051;-64
2023/06/16 11:24:08;;;;;;;0.00;0.00;;;;;;;26.29;31.91;99490.88;5076244;28;20049;-64
2023/06/16 11:26:36;;;;;;;0.00;0.00;;;;;;;26.85;32.37;99491.94;5068828;28;20493;-63
2023/06/16 11:29:06;;;;;;;0.00;0.00;;;;;;;26.28;33.96;99476.31;5083435;28;20478;-63
2023/06/16 11:31:35;;;;;;;0.00;0.00;;;;;;;26.71;32.10;99485.16;5075175;28;20051;-63
2023/06/16 11:34:03;;;;;;;0.00;0.00;;;;;;;25.45;33.14;99486.31;5077275;28;20036;-63
2023/06/16 11:36:32;;;;;;;0.00;0.00;;;;;;;24.75;33.38;99480.47;5078050;28;20104;-63
2023/06/16 11:39:04;;;;;;;0.00;0.00;;;;;;;25.79;32.42;99484.41;5079588;28;20604;-63
2023/06/16 11:41:31;;;;;;;0.00;0.00;;;;;;;25.92;33.55;99472.34;5077192;28;20152;-63
2023/06/16 11:43:59;;;;;;;0.00;0.00;;;;;;;26.72;32.38;99482.09;5082153;28;20048;-63
2023/06/16 11:46:32;;;;;;;0.08;0.08;;;;;;;27.39;31.91;99465.28;5076996;28;20135;-63
2023/06/16 11:49:01;;;;;;;0.00;0.00;;;;;;;26.75;31.45;99467.66;5081499;28;20048;-64